sensor_id;sensor_type;location;lat;lon;timestamp;temperature;humidity
22418;DHT22;11376;50.932;4.442;2022-09-29T00:00:28;9.70;99.90
22418;DHT22;11376;50.932;4.442;2022-09-29T00:02:53;9.70;99.90
22418;DHT22;11376;50.932;4.442;2022-09-29T00:05:20;9.70;99.90
22418;DHT22;11376;50.932;4.442;2022-09-29T00:07:45;9.70;99.90
22418;DHT22;11376;50.932;4.442;2022-09-29T00:10:11;9.80;99.90
22418;DHT22;11376;50.932;4.442;2022-09-29T00:12:36;9.70;99.90
22418;DHT22;11376;50.932;4.442;2022-09-29T00:15:02;9.80;99.90
22418;DHT22;11376;50.932;4.442;2022-09-29T00:17:28;9.80;99.90
22418;DHT22;11376;50.932;4.442;2022-09-29T00:19:54;9.80;99.90
22418;DHT22;11376;50.932;4.442;2022-09-29T00:22:19;9.70;99.90
22418;DHT22;11376;50.932;4.442;2022-09-29T00:24:46;9.80;99.90
22418;DHT22;11376;50.932;4.442;2022-09-29T00:27:14;9.80;99.90
22418;DHT22;11376;50.932;4.442;2022-09-29T00:29:39;9.80;99.90
22418;DHT22;11376;50.932;4.442;2022-09-29T00:32:05;9.80;99.90
22418;DHT22;11376;50.932;4.442;2022-09-29T00:34:30;9.70;99.90
22418;DHT22;11376;50.932;4.442;2022-09-29T00:36:56;9.70;99.90
22418;DHT22;11376;50.932;4.442;2022-09-29T00:39:22;9.70;99.90
22418;DHT22;11376;50.932;4.442;2022-09-29T00:41:47;9.70;99.90
22418;DHT22;11376;50.932;4.442;2022-09-29T00:49:17;9.70;99.90
22418;DHT22;11376;50.932;4.442;2022-09-29T00:52:06;9.60;99.90
22418;DHT22;11376;50.932;4.442;2022-09-29T00:54:37;9.50;99.90
22418;DHT22;11376;50.932;4.442;2022-09-29T00:57:05;9.50;99.90
22418;DHT22;11376;50.932;4.442;2022-09-29T01:00:19;9.40;99.90
22418;DHT22;11376;50.932;4.442;2022-09-29T01:02:26;9.30;99.90
22418;DHT22;11376;50.932;4.442;2022-09-29T01:04:53;9.40;99.90
22418;DHT22;11376;50.932;4.442;2022-09-29T01:07:21;9.50;99.90
22418;DHT22;11376;50.932;4.442;2022-09-29T01:09:49;9.50;99.90
22418;DHT22;11376;50.932;4.442;2022-09-29T01:12:16;9.60;99.90
22418;DHT22;11376;50.932;4.442;2022-09-29T01:14:43;9.60;99.90
22418;DHT22;11376;50.932;4.442;2022-09-29T01:17:09;9.60;99.90
22418;DHT22;11376;50.932;4.442;2022-09-29T01:20:02;9.60;99.90
22418;DHT22;11376;50.932;4.442;2022-09-29T01:44:30;9.40;99.90
22418;DHT22;11376;50.932;4.442;2022-09-29T01:47:07;9.30;99.90
22418;DHT22;11376;50.932;4.442;2022-09-29T01:49:37;9.30;99.90
22418;DHT22;11376;50.932;4.442;2022-09-29T01:52:13;9.30;99.90
22418;DHT22;11376;50.932;4.442;2022-09-29T01:54:47;9.40;99.90
22418;DHT22;11376;50.932;4.442;2022-09-29T01:57:20;9.40;99.90
22418;DHT22;11376;50.932;4.442;2022-09-29T01:59:59;9.30;99.90
22418;DHT22;11376;50.932;4.442;2022-09-29T02:02:38;9.30;99.90
22418;DHT22;11376;50.932;4.442;2022-09-29T02:05:12;9.30;99.90
22418;DHT22;11376;50.932;4.442;2022-09-29T02:07:43;9.20;99.90
22418;DHT22;11376;50.932;4.442;2022-09-29T02:10:18;9.20;99.90
22418;DHT22;11376;50.932;4.442;2022-09-29T02:12:47;9.20;99.90
22418;DHT22;11376;50.932;4.442;2022-09-29T02:15:17;9.20;99.90
22418;DHT22;11376;50.932;4.442;2022-09-29T02:17:46;9.20;99.90
22418;DHT22;11376;50.932;4.442;2022-09-29T02:20:13;9.20;99.90
22418;DHT22;11376;50.932;4.442;2022-09-29T02:22:39;9.20;99.90
22418;DHT22;11376;50.932;4.442;2022-09-29T02:25:08;9.20;99.90
22418;DHT22;11376;50.932;4.442;2022-09-29T02:27:36;9.20;99.90
22418;DHT22;11376;50.932;4.442;2022-09-29T02:30:03;9.20;99.90
22418;DHT22;11376;50.932;4.442;2022-09-29T02:32:32;9.10;99.90
22418;DHT22;11376;50.932;4.442;2022-09-29T02:35:00;9.10;99.90
22418;DHT22;11376;50.932;4.442;2022-09-29T02:43:56;9.00;99.90
22418;DHT22;11376;50.932;4.442;2022-09-29T02:46:31;9.00;99.90
22418;DHT22;11376;50.932;4.442;2022-09-29T02:49:25;8.90;99.90
22418;DHT22;11376;50.932;4.442;2022-09-29T02:52:09;8.90;99.90
22418;DHT22;11376;50.932;4.442;2022-09-29T02:57:27;8.80;99.90
22418;DHT22;11376;50.932;4.442;2022-09-29T03:00:04;8.80;99.90
22418;DHT22;11376;50.932;4.442;2022-09-29T03:02:34;8.80;99.90
22418;DHT22;11376;50.932;4.442;2022-09-29T03:05:02;8.80;99.90
22418;DHT22;11376;50.932;4.442;2022-09-29T03:07:28;8.80;99.90
22418;DHT22;11376;50.932;4.442;2022-09-29T03:09:53;8.80;99.90
22418;DHT22;11376;50.932;4.442;2022-09-29T03:12:19;8.90;99.90
22418;DHT22;11376;50.932;4.442;2022-09-29T03:14:45;8.90;99.90
22418;DHT22;11376;50.932;4.442;2022-09-29T03:17:10;9.00;99.90
22418;DHT22;11376;50.932;4.442;2022-09-29T03:19:36;9.00;99.90
22418;DHT22;11376;50.932;4.442;2022-09-29T03:22:02;9.10;99.90
22418;DHT22;11376;50.932;4.442;2022-09-29T03:24:28;9.10;99.90
22418;DHT22;11376;50.932;4.442;2022-09-29T03:26:54;9.20;99.90
22418;DHT22;11376;50.932;4.442;2022-09-29T03:29:19;9.20;99.90
22418;DHT22;11376;50.932;4.442;2022-09-29T03:31:45;9.30;99.90
22418;DHT22;11376;50.932;4.442;2022-09-29T03:34:10;9.30;99.90
22418;DHT22;11376;50.932;4.442;2022-09-29T03:36:36;9.40;99.90
22418;DHT22;11376;50.932;4.442;2022-09-29T03:39:02;9.40;99.90
22418;DHT22;11376;50.932;4.442;2022-09-29T03:41:27;9.30;99.90
22418;DHT22;11376;50.932;4.442;2022-09-29T03:43:53;9.30;99.90
22418;DHT22;11376;50.932;4.442;2022-09-29T03:46:18;9.30;99.90
22418;DHT22;11376;50.932;4.442;2022-09-29T03:48:44;9.30;99.90
22418;DHT22;11376;50.932;4.442;2022-09-29T03:51:09;9.20;99.90
22418;DHT22;11376;50.932;4.442;2022-09-29T03:53:35;9.20;99.90
22418;DHT22;11376;50.932;4.442;2022-09-29T03:56:01;9.20;99.90
22418;DHT22;11376;50.932;4.442;2022-09-29T03:58:27;9.20;99.90
22418;DHT22;11376;50.932;4.442;2022-09-29T04:00:52;9.10;99.90
22418;DHT22;11376;50.932;4.442;2022-09-29T04:03:19;9.10;99.90
22418;DHT22;11376;50.932;4.442;2022-09-29T04:05:45;9.00;99.90
22418;DHT22;11376;50.932;4.442;2022-09-29T04:08:12;8.90;99.90
22418;DHT22;11376;50.932;4.442;2022-09-29T04:10:38;8.90;99.90
22418;DHT22;11376;50.932;4.442;2022-09-29T04:13:04;8.90;99.90
22418;DHT22;11376;50.932;4.442;2022-09-29T04:15:30;8.90;99.90
22418;DHT22;11376;50.932;4.442;2022-09-29T04:17:56;8.90;99.90
22418;DHT22;11376;50.932;4.442;2022-09-29T04:20:21;8.80;99.90
22418;DHT22;11376;50.932;4.442;2022-09-29T04:22:48;8.80;99.90
22418;DHT22;11376;50.932;4.442;2022-09-29T04:25:14;8.80;99.90
22418;DHT22;11376;50.932;4.442;2022-09-29T04:27:40;8.80;99.90
22418;DHT22;11376;50.932;4.442;2022-09-29T04:30:06;8.80;99.90
22418;DHT22;11376;50.932;4.442;2022-09-29T04:32:32;8.70;99.90
22418;DHT22;11376;50.932;4.442;2022-09-29T04:34:58;8.70;99.90
22418;DHT22;11376;50.932;4.442;2022-09-29T04:37:23;8.70;99.90
22418;DHT22;11376;50.932;4.442;2022-09-29T04:39:49;8.70;99.90
22418;DHT22;11376;50.932;4.442;2022-09-29T04:42:17;8.70;99.90
22418;DHT22;11376;50.932;4.442;2022-09-29T04:44:43;8.60;99.90
22418;DHT22;11376;50.932;4.442;2022-09-29T04:47:08;8.60;99.90
22418;DHT22;11376;50.932;4.442;2022-09-29T04:49:34;8.70;99.90
22418;DHT22;11376;50.932;4.442;2022-09-29T04:51:59;8.70;99.90
22418;DHT22;11376;50.932;4.442;2022-09-29T04:54:32;8.60;99.90
22418;DHT22;11376;50.932;4.442;2022-09-29T04:56:59;8.60;99.90
22418;DHT22;11376;50.932;4.442;2022-09-29T04:59:25;8.70;99.90
22418;DHT22;11376;50.932;4.442;2022-09-29T05:01:51;8.70;99.90
22418;DHT22;11376;50.932;4.442;2022-09-29T05:04:17;8.70;99.90
22418;DHT22;11376;50.932;4.442;2022-09-29T05:06:42;8.70;99.90
22418;DHT22;11376;50.932;4.442;2022-09-29T05:09:08;8.70;99.90
22418;DHT22;11376;50.932;4.442;2022-09-29T05:11:34;8.70;99.90
22418;DHT22;11376;50.932;4.442;2022-09-29T05:13:59;8.70;99.90
22418;DHT22;11376;50.932;4.442;2022-09-29T05:16:25;8.70;99.90
22418;DHT22;11376;50.932;4.442;2022-09-29T05:18:51;8.70;99.90
22418;DHT22;11376;50.932;4.442;2022-09-29T05:21:17;8.70;99.90
22418;DHT22;11376;50.932;4.442;2022-09-29T05:23:43;8.70;99.90
22418;DHT22;11376;50.932;4.442;2022-09-29T05:26:09;8.70;99.90
22418;DHT22;11376;50.932;4.442;2022-09-29T05:28:37;8.70;99.90
22418;DHT22;11376;50.932;4.442;2022-09-29T05:31:07;8.70;99.90
22418;DHT22;11376;50.932;4.442;2022-09-29T05:33:34;8.70;99.90
22418;DHT22;11376;50.932;4.442;2022-09-29T05:36:00;8.70;99.90
22418;DHT22;11376;50.932;4.442;2022-09-29T05:38:26;8.70;99.90
22418;DHT22;11376;50.932;4.442;2022-09-29T05:40:52;8.70;99.90
22418;DHT22;11376;50.932;4.442;2022-09-29T05:43:18;8.70;99.90
22418;DHT22;11376;50.932;4.442;2022-09-29T05:45:44;8.70;99.90
22418;DHT22;11376;50.932;4.442;2022-09-29T05:48:10;8.70;99.90
22418;DHT22;11376;50.932;4.442;2022-09-29T05:50:35;8.70;99.90
22418;DHT22;11376;50.932;4.442;2022-09-29T05:53:08;8.60;99.90
22418;DHT22;11376;50.932;4.442;2022-09-29T05:55:37;8.70;99.90
22418;DHT22;11376;50.932;4.442;2022-09-29T05:58:03;8.70;99.90
22418;DHT22;11376;50.932;4.442;2022-09-29T06:00:31;8.70;99.90
22418;DHT22;11376;50.932;4.442;2022-09-29T06:02:58;8.70;99.90
22418;DHT22;11376;50.932;4.442;2022-09-29T06:05:24;8.70;99.90
22418;DHT22;11376;50.932;4.442;2022-09-29T06:07:51;8.70;99.90
22418;DHT22;11376;50.932;4.442;2022-09-29T06:10:17;8.70;99.90
22418;DHT22;11376;50.932;4.442;2022-09-29T06:12:42;8.70;99.90
22418;DHT22;11376;50.932;4.442;2022-09-29T06:15:10;8.80;99.90
22418;DHT22;11376;50.932;4.442;2022-09-29T06:17:36;8.80;99.90
22418;DHT22;11376;50.932;4.442;2022-09-29T06:20:03;8.80;99.90
22418;DHT22;11376;50.932;4.442;2022-09-29T06:22:28;8.80;99.90
22418;DHT22;11376;50.932;4.442;2022-09-29T06:24:54;8.80;99.90
22418;DHT22;11376;50.932;4.442;2022-09-29T06:27:20;8.90;99.90
22418;DHT22;11376;50.932;4.442;2022-09-29T06:29:46;8.90;99.90
22418;DHT22;11376;50.932;4.442;2022-09-29T06:32:11;8.90;99.90
22418;DHT22;11376;50.932;4.442;2022-09-29T06:34:37;9.00;99.90
22418;DHT22;11376;50.932;4.442;2022-09-29T06:37:22;9.00;99.90
22418;DHT22;11376;50.932;4.442;2022-09-29T06:40:04;9.10;99.90
22418;DHT22;11376;50.932;4.442;2022-09-29T06:42:30;9.20;99.90
22418;DHT22;11376;50.932;4.442;2022-09-29T06:44:56;9.30;99.90
22418;DHT22;11376;50.932;4.442;2022-09-29T06:47:22;9.30;99.90
22418;DHT22;11376;50.932;4.442;2022-09-29T06:49:48;9.40;99.90
22418;DHT22;11376;50.932;4.442;2022-09-29T06:52:14;9.50;99.90
22418;DHT22;11376;50.932;4.442;2022-09-29T06:54:39;9.60;99.90
22418;DHT22;11376;50.932;4.442;2022-09-29T06:57:05;9.70;99.90
22418;DHT22;11376;50.932;4.442;2022-09-29T06:59:30;9.80;99.90
22418;DHT22;11376;50.932;4.442;2022-09-29T07:01:56;9.80;99.90
22418;DHT22;11376;50.932;4.442;2022-09-29T07:04:22;9.90;99.90
22418;DHT22;11376;50.932;4.442;2022-09-29T07:06:52;10.00;99.90
22418;DHT22;11376;50.932;4.442;2022-09-29T07:09:19;10.10;99.90
22418;DHT22;11376;50.932;4.442;2022-09-29T07:11:46;10.20;99.90
22418;DHT22;11376;50.932;4.442;2022-09-29T07:14:13;10.10;99.90
22418;DHT22;11376;50.932;4.442;2022-09-29T07:16:39;10.20;99.90
22418;DHT22;11376;50.932;4.442;2022-09-29T07:19:05;10.30;99.90
22418;DHT22;11376;50.932;4.442;2022-09-29T07:21:30;10.40;99.90
22418;DHT22;11376;50.932;4.442;2022-09-29T07:23:56;10.60;99.90
22418;DHT22;11376;50.932;4.442;2022-09-29T07:26:21;10.70;99.90
22418;DHT22;11376;50.932;4.442;2022-09-29T07:28:47;10.70;99.90
22418;DHT22;11376;50.932;4.442;2022-09-29T07:31:18;10.80;99.90
22418;DHT22;11376;50.932;4.442;2022-09-29T07:33:44;10.90;99.90
22418;DHT22;11376;50.932;4.442;2022-09-29T07:36:12;11.10;99.90
22418;DHT22;11376;50.932;4.442;2022-09-29T07:38:37;11.10;99.90
22418;DHT22;11376;50.932;4.442;2022-09-29T07:41:07;11.20;99.90
22418;DHT22;11376;50.932;4.442;2022-09-29T07:43:33;11.20;99.90
22418;DHT22;11376;50.932;4.442;2022-09-29T07:45:59;11.30;99.90
22418;DHT22;11376;50.932;4.442;2022-09-29T07:48:25;11.40;99.90
22418;DHT22;11376;50.932;4.442;2022-09-29T07:50:51;11.40;99.90
22418;DHT22;11376;50.932;4.442;2022-09-29T07:53:17;11.50;99.90
22418;DHT22;11376;50.932;4.442;2022-09-29T07:55:43;11.60;99.90
22418;DHT22;11376;50.932;4.442;2022-09-29T07:58:09;11.70;99.90
22418;DHT22;11376;50.932;4.442;2022-09-29T08:00:34;11.70;99.90
22418;DHT22;11376;50.932;4.442;2022-09-29T08:03:04;11.90;99.90
22418;DHT22;11376;50.932;4.442;2022-09-29T08:05:32;11.90;99.90
22418;DHT22;11376;50.932;4.442;2022-09-29T08:08:03;12.00;99.90
22418;DHT22;11376;50.932;4.442;2022-09-29T08:10:32;11.90;99.90
22418;DHT22;11376;50.932;4.442;2022-09-29T08:12:58;11.90;99.90
22418;DHT22;11376;50.932;4.442;2022-09-29T08:15:25;12.00;99.90
22418;DHT22;11376;50.932;4.442;2022-09-29T08:17:52;12.10;99.90
22418;DHT22;11376;50.932;4.442;2022-09-29T08:20:18;12.20;99.90
22418;DHT22;11376;50.932;4.442;2022-09-29T08:22:44;12.40;99.90
22418;DHT22;11376;50.932;4.442;2022-09-29T08:25:11;12.60;99.90
22418;DHT22;11376;50.932;4.442;2022-09-29T08:27:36;12.70;99.90
22418;DHT22;11376;50.932;4.442;2022-09-29T08:30:02;12.70;99.90
22418;DHT22;11376;50.932;4.442;2022-09-29T08:32:28;12.80;99.90
22418;DHT22;11376;50.932;4.442;2022-09-29T08:34:53;12.90;99.90
22418;DHT22;11376;50.932;4.442;2022-09-29T08:37:19;13.10;99.90
22418;DHT22;11376;50.932;4.442;2022-09-29T08:39:44;13.30;99.90
22418;DHT22;11376;50.932;4.442;2022-09-29T08:42:51;13.30;99.90
22418;DHT22;11376;50.932;4.442;2022-09-29T08:45:29;13.40;99.90
22418;DHT22;11376;50.932;4.442;2022-09-29T08:48:07;13.60;99.90
22418;DHT22;11376;50.932;4.442;2022-09-29T08:50:48;13.60;99.90
22418;DHT22;11376;50.932;4.442;2022-09-29T08:53:19;13.70;99.90
22418;DHT22;11376;50.932;4.442;2022-09-29T08:55:49;13.80;99.90
22418;DHT22;11376;50.932;4.442;2022-09-29T08:58:17;13.90;99.90
22418;DHT22;11376;50.932;4.442;2022-09-29T09:06:22;14.30;99.90
22418;DHT22;11376;50.932;4.442;2022-09-29T09:20:10;14.60;99.90
22418;DHT22;11376;50.932;4.442;2022-09-29T09:23:07;14.70;99.90
22418;DHT22;11376;50.932;4.442;2022-09-29T09:25:45;14.80;99.90
22418;DHT22;11376;50.932;4.442;2022-09-29T09:28:28;14.90;99.90
22418;DHT22;11376;50.932;4.442;2022-09-29T09:31:07;15.00;99.90
22418;DHT22;11376;50.932;4.442;2022-09-29T09:33:57;15.10;99.90
22418;DHT22;11376;50.932;4.442;2022-09-29T09:36:35;15.20;99.90
22418;DHT22;11376;50.932;4.442;2022-09-29T09:39:05;15.30;99.90
22418;DHT22;11376;50.932;4.442;2022-09-29T09:41:36;15.40;99.90
22418;DHT22;11376;50.932;4.442;2022-09-29T09:44:32;15.50;99.90
22418;DHT22;11376;50.932;4.442;2022-09-29T09:47:10;15.60;99.90
22418;DHT22;11376;50.932;4.442;2022-09-29T09:49:42;15.60;99.90
22418;DHT22;11376;50.932;4.442;2022-09-29T09:52:23;15.70;99.90
22418;DHT22;11376;50.932;4.442;2022-09-29T09:55:16;15.90;99.90
22418;DHT22;11376;50.932;4.442;2022-09-29T09:58:23;16.20;99.90
22418;DHT22;11376;50.932;4.442;2022-09-29T10:00:57;16.60;99.90
22418;DHT22;11376;50.932;4.442;2022-09-29T10:03:26;17.40;99.90
22418;DHT22;11376;50.932;4.442;2022-09-29T10:05:52;18.20;99.90
22418;DHT22;11376;50.932;4.442;2022-09-29T10:08:25;18.80;99.90
22418;DHT22;11376;50.932;4.442;2022-09-29T10:10:53;19.40;99.90
22418;DHT22;11376;50.932;4.442;2022-09-29T10:13:18;20.10;99.90
22418;DHT22;11376;50.932;4.442;2022-09-29T10:15:51;21.40;99.90
22418;DHT22;11376;50.932;4.442;2022-09-29T10:21:01;25.30;99.90
22418;DHT22;11376;50.932;4.442;2022-09-29T10:23:30;27.70;99.10
22418;DHT22;11376;50.932;4.442;2022-09-29T10:26:08;30.10;91.20
22418;DHT22;11376;50.932;4.442;2022-09-29T10:28:49;31.50;74.70
22418;DHT22;11376;50.932;4.442;2022-09-29T10:31:27;33.60;60.00
22418;DHT22;11376;50.932;4.442;2022-09-29T10:36:27;37.40;48.90
22418;DHT22;11376;50.932;4.442;2022-09-29T10:38:53;39.00;42.80
22418;DHT22;11376;50.932;4.442;2022-09-29T10:41:19;38.70;39.80
22418;DHT22;11376;50.932;4.442;2022-09-29T10:43:46;39.20;38.50
22418;DHT22;11376;50.932;4.442;2022-09-29T10:46:36;38.70;37.40
22418;DHT22;11376;50.932;4.442;2022-09-29T10:51:38;32.70;41.20
22418;DHT22;11376;50.932;4.442;2022-09-29T10:54:08;30.50;44.00
22418;DHT22;11376;50.932;4.442;2022-09-29T10:56:36;28.60;47.00
22418;DHT22;11376;50.932;4.442;2022-09-29T10:59:03;27.20;50.10
22418;DHT22;11376;50.932;4.442;2022-09-29T11:01:31;26.00;51.90
22418;DHT22;11376;50.932;4.442;2022-09-29T11:04:06;25.00;53.40
22418;DHT22;11376;50.932;4.442;2022-09-29T11:06:40;24.20;55.80
22418;DHT22;11376;50.932;4.442;2022-09-29T11:09:26;23.50;58.30
22418;DHT22;11376;50.932;4.442;2022-09-29T11:11:57;22.80;62.20
22418;DHT22;11376;50.932;4.442;2022-09-29T11:17:02;21.90;69.60
22418;DHT22;11376;50.932;4.442;2022-09-29T11:19:43;21.50;72.70
22418;DHT22;11376;50.932;4.442;2022-09-29T11:27:42;21.30;79.60
22418;DHT22;11376;50.932;4.442;2022-09-29T11:30:20;23.80;74.80
22418;DHT22;11376;50.932;4.442;2022-09-29T11:33:02;24.10;73.20
22418;DHT22;11376;50.932;4.442;2022-09-29T11:35:45;24.10;74.70
22418;DHT22;11376;50.932;4.442;2022-09-29T11:47:11;40.30;38.20
22418;DHT22;11376;50.932;4.442;2022-09-29T12:01:05;42.90;28.20
22418;DHT22;11376;50.932;4.442;2022-09-29T12:03:54;40.40;29.30
22418;DHT22;11376;50.932;4.442;2022-09-29T12:09:55;35.50;33.30
22418;DHT22;11376;50.932;4.442;2022-09-29T12:12:12;34.60;34.40
22418;DHT22;11376;50.932;4.442;2022-09-29T12:15:02;35.80;34.20
22418;DHT22;11376;50.932;4.442;2022-09-29T12:17:36;38.60;31.80
22418;DHT22;11376;50.932;4.442;2022-09-29T12:23:11;41.80;29.00
22418;DHT22;11376;50.932;4.442;2022-09-29T12:25:55;43.60;27.90
22418;DHT22;11376;50.932;4.442;2022-09-29T12:28:28;45.00;26.90
22418;DHT22;11376;50.932;4.442;2022-09-29T12:31:07;46.10;25.30
22418;DHT22;11376;50.932;4.442;2022-09-29T12:33:45;44.90;25.30
22418;DHT22;11376;50.932;4.442;2022-09-29T12:54:16;31.90;34.20
22418;DHT22;11376;50.932;4.442;2022-09-29T12:56:47;30.30;36.00
22418;DHT22;11376;50.932;4.442;2022-09-29T12:59:38;29.00;37.60
22418;DHT22;11376;50.932;4.442;2022-09-29T13:11:05;24.80;44.90
22418;DHT22;11376;50.932;4.442;2022-09-29T13:16:45;23.40;48.30
22418;DHT22;11376;50.932;4.442;2022-09-29T13:25:23;22.60;51.40
22418;DHT22;11376;50.932;4.442;2022-09-29T13:27:54;22.70;51.40
22418;DHT22;11376;50.932;4.442;2022-09-29T13:30:27;22.80;51.60
22418;DHT22;11376;50.932;4.442;2022-09-29T13:33:09;22.90;51.80
22418;DHT22;11376;50.932;4.442;2022-09-29T13:35:41;22.90;51.60
22418;DHT22;11376;50.932;4.442;2022-09-29T13:38:33;22.90;52.00
22418;DHT22;11376;50.932;4.442;2022-09-29T13:41:08;22.80;53.20
22418;DHT22;11376;50.932;4.442;2022-09-29T13:46:36;22.50;53.20
22418;DHT22;11376;50.932;4.442;2022-09-29T13:54:27;22.00;54.30
22418;DHT22;11376;50.932;4.442;2022-09-29T13:59:43;22.00;54.70
22418;DHT22;11376;50.932;4.442;2022-09-29T14:05:05;21.90;55.60
22418;DHT22;11376;50.932;4.442;2022-09-29T14:07:38;22.00;56.00
22418;DHT22;11376;50.932;4.442;2022-09-29T14:12:45;22.70;57.00
22418;DHT22;11376;50.932;4.442;2022-09-29T14:15:15;24.80;55.00
22418;DHT22;11376;50.932;4.442;2022-09-29T14:17:48;27.50;49.60
22418;DHT22;11376;50.932;4.442;2022-09-29T14:20:21;29.70;45.20
22418;DHT22;11376;50.932;4.442;2022-09-29T14:22:57;30.30;43.50
22418;DHT22;11376;50.932;4.442;2022-09-29T14:33:16;33.20;40.00
22418;DHT22;11376;50.932;4.442;2022-09-29T14:38:33;32.40;37.90
22418;DHT22;11376;50.932;4.442;2022-09-29T14:49:51;28.90;41.20
22418;DHT22;11376;50.932;4.442;2022-09-29T14:55:41;27.50;43.20
22418;DHT22;11376;50.932;4.442;2022-09-29T15:03:48;25.50;47.20
22418;DHT22;11376;50.932;4.442;2022-09-29T15:06:20;25.00;48.60
22418;DHT22;11376;50.932;4.442;2022-09-29T15:11:47;24.30;50.50
22418;DHT22;11376;50.932;4.442;2022-09-29T15:25:22;21.90;63.10
22418;DHT22;11376;50.932;4.442;2022-09-29T15:27:52;21.40;66.10
22418;DHT22;11376;50.932;4.442;2022-09-29T15:30:21;21.00;68.00
22418;DHT22;11376;50.932;4.442;2022-09-29T15:32:48;20.80;70.00
22418;DHT22;11376;50.932;4.442;2022-09-29T15:35:19;20.60;72.10
22418;DHT22;11376;50.932;4.442;2022-09-29T15:40:16;20.20;76.70
22418;DHT22;11376;50.932;4.442;2022-09-29T15:42:41;20.00;78.90
22418;DHT22;11376;50.932;4.442;2022-09-29T15:45:24;20.00;81.40
22418;DHT22;11376;50.932;4.442;2022-09-29T15:48:00;19.90;83.90
22418;DHT22;11376;50.932;4.442;2022-09-29T15:50:28;19.90;86.90
22418;DHT22;11376;50.932;4.442;2022-09-29T15:53:00;19.90;88.50
22418;DHT22;11376;50.932;4.442;2022-09-29T15:55:28;19.80;89.40
22418;DHT22;11376;50.932;4.442;2022-09-29T15:57:54;19.70;90.10
22418;DHT22;11376;50.932;4.442;2022-09-29T16:05:37;19.30;92.50
22418;DHT22;11376;50.932;4.442;2022-09-29T16:10:40;19.00;94.50
22418;DHT22;11376;50.932;4.442;2022-09-29T16:13:12;18.70;95.90
22418;DHT22;11376;50.932;4.442;2022-09-29T16:15:43;18.50;97.40
22418;DHT22;11376;50.932;4.442;2022-09-29T16:18:21;18.40;98.50
22418;DHT22;11376;50.932;4.442;2022-09-29T16:20:48;18.30;99.90
22418;DHT22;11376;50.932;4.442;2022-09-29T16:28:34;17.80;99.90
22418;DHT22;11376;50.932;4.442;2022-09-29T16:31:17;17.70;99.90
22418;DHT22;11376;50.932;4.442;2022-09-29T16:33:45;17.50;99.90
22418;DHT22;11376;50.932;4.442;2022-09-29T16:36:13;17.30;99.90
22418;DHT22;11376;50.932;4.442;2022-09-29T16:38:44;17.10;99.90
22418;DHT22;11376;50.932;4.442;2022-09-29T16:41:33;17.00;99.90
22418;DHT22;11376;50.932;4.442;2022-09-29T16:44:16;16.90;99.90
22418;DHT22;11376;50.932;4.442;2022-09-29T16:49:15;16.60;99.90
22418;DHT22;11376;50.932;4.442;2022-09-29T16:51:44;16.50;99.90
22418;DHT22;11376;50.932;4.442;2022-09-29T16:54:15;16.40;99.90
22418;DHT22;11376;50.932;4.442;2022-09-29T16:56:42;16.20;99.90
22418;DHT22;11376;50.932;4.442;2022-09-29T16:59:12;16.10;99.90
22418;DHT22;11376;50.932;4.442;2022-09-29T17:01:39;16.00;99.90
22418;DHT22;11376;50.932;4.442;2022-09-29T17:04:06;16.00;99.90
22418;DHT22;11376;50.932;4.442;2022-09-29T17:06:32;15.90;99.90
22418;DHT22;11376;50.932;4.442;2022-09-29T17:08:58;15.80;99.90
22418;DHT22;11376;50.932;4.442;2022-09-29T17:11:24;15.80;99.90
22418;DHT22;11376;50.932;4.442;2022-09-29T17:13:50;15.80;99.90
22418;DHT22;11376;50.932;4.442;2022-09-29T17:16:15;15.70;99.90
22418;DHT22;11376;50.932;4.442;2022-09-29T17:18:47;15.70;99.90
22418;DHT22;11376;50.932;4.442;2022-09-29T17:21:13;15.60;99.90
22418;DHT22;11376;50.932;4.442;2022-09-29T17:23:39;15.50;99.90
22418;DHT22;11376;50.932;4.442;2022-09-29T17:26:17;15.50;99.90
22418;DHT22;11376;50.932;4.442;2022-09-29T17:29:02;15.40;99.90
22418;DHT22;11376;50.932;4.442;2022-09-29T17:31:28;15.30;99.90
22418;DHT22;11376;50.932;4.442;2022-09-29T17:33:53;15.20;99.90
22418;DHT22;11376;50.932;4.442;2022-09-29T17:36:19;15.20;99.90
22418;DHT22;11376;50.932;4.442;2022-09-29T17:38:46;15.10;99.90
22418;DHT22;11376;50.932;4.442;2022-09-29T17:41:13;15.10;99.90
22418;DHT22;11376;50.932;4.442;2022-09-29T17:43:40;15.10;99.90
22418;DHT22;11376;50.932;4.442;2022-09-29T17:46:14;15.10;99.90
22418;DHT22;11376;50.932;4.442;2022-09-29T17:48:40;15.10;99.90
22418;DHT22;11376;50.932;4.442;2022-09-29T17:51:14;15.20;99.90
22418;DHT22;11376;50.932;4.442;2022-09-29T17:53:42;15.10;99.90
22418;DHT22;11376;50.932;4.442;2022-09-29T17:56:20;15.10;99.90
22418;DHT22;11376;50.932;4.442;2022-09-29T17:58:50;15.10;99.90
22418;DHT22;11376;50.932;4.442;2022-09-29T18:01:18;15.10;99.90
22418;DHT22;11376;50.932;4.442;2022-09-29T18:03:44;15.00;99.90
22418;DHT22;11376;50.932;4.442;2022-09-29T18:06:18;15.00;99.90
22418;DHT22;11376;50.932;4.442;2022-09-29T18:08:50;15.00;99.90
22418;DHT22;11376;50.932;4.442;2022-09-29T18:11:21;15.00;99.90
22418;DHT22;11376;50.932;4.442;2022-09-29T18:13:47;15.00;99.90
22418;DHT22;11376;50.932;4.442;2022-09-29T18:16:20;15.00;99.90
22418;DHT22;11376;50.932;4.442;2022-09-29T18:18:46;15.00;99.90
22418;DHT22;11376;50.932;4.442;2022-09-29T18:21:13;14.90;99.90
22418;DHT22;11376;50.932;4.442;2022-09-29T18:23:44;14.90;99.90
22418;DHT22;11376;50.932;4.442;2022-09-29T18:26:11;14.90;99.90
22418;DHT22;11376;50.932;4.442;2022-09-29T18:28:37;14.80;99.90
22418;DHT22;11376;50.932;4.442;2022-09-29T18:31:12;14.80;99.90
22418;DHT22;11376;50.932;4.442;2022-09-29T18:33:39;14.80;99.90
22418;DHT22;11376;50.932;4.442;2022-09-29T18:36:05;14.80;99.90
22418;DHT22;11376;50.932;4.442;2022-09-29T18:38:33;14.80;99.90
22418;DHT22;11376;50.932;4.442;2022-09-29T18:40:58;14.70;99.90
22418;DHT22;11376;50.932;4.442;2022-09-29T18:43:25;14.70;99.90
22418;DHT22;11376;50.932;4.442;2022-09-29T18:45:53;14.60;99.90
22418;DHT22;11376;50.932;4.442;2022-09-29T18:48:19;14.50;99.90
22418;DHT22;11376;50.932;4.442;2022-09-29T18:50:46;14.40;99.90
22418;DHT22;11376;50.932;4.442;2022-09-29T18:53:15;14.30;99.90
22418;DHT22;11376;50.932;4.442;2022-09-29T18:55:42;14.20;99.90
22418;DHT22;11376;50.932;4.442;2022-09-29T18:58:13;14.10;99.90
22418;DHT22;11376;50.932;4.442;2022-09-29T19:00:42;14.00;99.90
22418;DHT22;11376;50.932;4.442;2022-09-29T19:03:07;13.90;99.90
22418;DHT22;11376;50.932;4.442;2022-09-29T19:05:35;13.80;99.90
22418;DHT22;11376;50.932;4.442;2022-09-29T19:08:04;13.70;99.90
22418;DHT22;11376;50.932;4.442;2022-09-29T19:10:33;13.60;99.90
22418;DHT22;11376;50.932;4.442;2022-09-29T19:13:00;13.50;99.90
22418;DHT22;11376;50.932;4.442;2022-09-29T19:15:29;13.40;99.90
22418;DHT22;11376;50.932;4.442;2022-09-29T19:17:56;13.30;99.90
22418;DHT22;11376;50.932;4.442;2022-09-29T19:20:24;13.20;99.90
22418;DHT22;11376;50.932;4.442;2022-09-29T19:22:51;13.10;99.90